Time;durP1;ratioP1;P1;durP2;ratioP2;P2;SDS_P1;SDS_P2;PMS_P1;PMS_P2;Temp;Humidity;BMP_temperature;BMP_pressure;BME280_temperature;BME280_humidity;BME280_pressure;Samples;Min_cycle;Max_cycle;Signal;HPM_P1;HPM_P2
2022/09/18 00:01:42;;;;;;;11.03;2.83;;;12.40;89.90;;;;;;5050685;28;20936;-73
2022/09/18 00:04:13;;;;;;;12.50;3.43;;;12.40;90.90;;;;;;5051169;28;20410;-75
2022/09/18 00:06:40;;;;;;;8.25;2.63;;;12.40;92.00;;;;;;5051131;28;20381;-74
2022/09/18 00:09:11;;;;;;;9.27;2.20;;;12.40;91.70;;;;;;5051052;28;20914;-74
2022/09/18 00:11:39;;;;;;;11.88;2.60;;;12.40;92.70;;;;;;5050935;28;20421;-75
2022/09/18 00:14:07;;;;;;;11.93;2.88;;;12.40;92.90;;;;;;5050958;28;20386;-74
2022/09/18 00:16:33;;;;;;;6.78;2.20;;;12.40;92.30;;;;;;5051115;28;20800;-74
2022/09/18 00:18:59;;;;;;;7.72;2.20;;;12.40;92.80;;;;;;5050986;28;20475;-74
2022/09/18 00:21:25;;;;;;;11.83;2.80;;;12.40;92.30;;;;;;5050677;28;20385;-74
2022/09/18 00:23:55;;;;;;;13.10;3.08;;;12.30;93.80;;;;;;5050659;28;20812;-75
2022/09/18 00:26:24;;;;;;;10.07;2.85;;;12.20;96.00;;;;;;5051057;28;20381;-74
2022/09/18 00:28:54;;;;;;;5.10;2.42;;;12.20;96.10;;;;;;5050929;28;20480;-74
2022/09/18 00:31:28;;;;;;;12.02;3.13;;;12.30;95.80;;;;;;5050574;28;20886;-75
2022/09/18 00:33:58;;;;;;;11.43;2.80;;;12.20;95.90;;;;;;5050899;28;20390;-79
2022/09/18 00:36:24;;;;;;;10.97;2.70;;;12.30;95.10;;;;;;5051236;28;20472;-76
2022/09/18 00:38:50;;;;;;;9.85;2.85;;;12.20;95.80;;;;;;5051028;28;20479;-75
2022/09/18 00:41:18;;;;;;;8.52;2.55;;;12.30;96.10;;;;;;5050659;28;20397;-77
2022/09/18 00:43:44;;;;;;;9.60;2.50;;;12.20;96.20;;;;;;5050778;28;20489;-74
2022/09/18 00:46:27;;;;;;;7.53;2.70;;;12.10;97.90;;;;;;5050672;28;20385;-75
2022/09/18 00:49:25;;;;;;;9.95;2.60;;;12.20;97.40;;;;;;5050551;28;20423;-75
2022/09/18 00:51:54;;;;;;;10.13;2.78;;;12.20;97.70;;;;;;5048877;28;20393;-74
2022/09/18 00:54:35;;;;;;;9.25;2.88;;;12.20;97.60;;;;;;5050574;28;20391;-74
2022/09/18 00:57:07;;;;;;;11.73;3.10;;;12.20;98.60;;;;;;5050458;28;20429;-75
2022/09/18 00:59:36;;;;;;;9.80;2.80;;;12.30;98.20;;;;;;5050574;28;20400;-74
2022/09/18 01:02:03;;;;;;;9.45;2.30;;;12.30;96.90;;;;;;5049979;28;20840;-74
2022/09/18 01:04:29;;;;;;;14.15;3.10;;;12.30;96.10;;;;;;5050292;28;20443;-75
2022/09/18 01:07:19;;;;;;;10.95;2.60;;;12.30;96.70;;;;;;5050723;28;20439;-75
2022/09/18 01:10:01;;;;;;;9.25;2.50;;;12.30;97.40;;;;;;5057030;28;20515;-76
2022/09/18 01:12:32;;;;;;;9.70;2.58;;;12.40;97.30;;;;;;5054589;28;20377;-75
2022/09/18 01:15:24;;;;;;;7.45;2.50;;;12.40;96.60;;;;;;5054107;28;20396;-73
2022/09/18 01:17:58;;;;;;;7.72;2.25;;;12.40;96.90;;;;;;5054171;28;20698;-75
2022/09/18 01:20:53;;;;;;;8.60;2.40;;;12.40;97.00;;;;;;5054053;28;20454;-74
2022/09/18 01:23:31;;;;;;;10.63;2.55;;;12.40;97.20;;;;;;5051721;28;20418;-74
2022/09/18 01:26:24;;;;;;;8.30;2.40;;;12.40;97.20;;;;;;5053848;28;20387;-75
2022/09/18 01:28:55;;;;;;;10.95;2.25;;;12.30;97.20;;;;;;5054084;28;20385;-75
2022/09/18 01:31:34;;;;;;;7.18;2.58;;;12.30;97.60;;;;;;5053394;28;20468;-74
2022/09/18 01:34:11;;;;;;;7.43;2.30;;;12.30;98.30;;;;;;5053831;28;20409;-75
2022/09/18 01:36:42;;;;;;;6.47;2.00;;;12.40;96.80;;;;;;5052465;28;20432;-74
2022/09/18 01:39:14;;;;;;;10.40;2.33;;;12.40;96.70;;;;;;5053544;28;20487;-74
2022/09/18 01:41:42;;;;;;;4.95;1.90;;;12.30;95.50;;;;;;5053455;28;20870;-75
2022/09/18 01:44:15;;;;;;;9.50;2.25;;;12.30;96.70;;;;;;5054201;28;20401;-74
2022/09/18 01:46:43;;;;;;;6.18;2.20;;;12.40;95.90;;;;;;5052868;28;20788;-76
2022/09/18 01:49:19;;;;;;;6.90;2.00;;;12.30;95.70;;;;;;5053785;28;20440;-74
2022/09/18 01:52:15;;;;;;;6.88;2.20;;;12.30;96.70;;;;;;5053225;28;20381;-73
2022/09/18 01:54:43;;;;;;;9.52;2.47;;;12.30;98.00;;;;;;5053523;28;20382;-75
2022/09/18 01:57:15;;;;;;;11.48;2.50;;;12.40;97.20;;;;;;5053647;28;20381;-78
2022/09/18 01:59:54;;;;;;;8.75;1.92;;;12.40;96.40;;;;;;5052233;28;20624;-74
2022/09/18 02:02:28;;;;;;;10.77;2.30;;;12.30;96.90;;;;;;5053263;28;20408;-75
2022/09/18 02:04:59;;;;;;;10.27;2.00;;;12.30;96.00;;;;;;5053494;28;20804;-76
2022/09/18 02:07:36;;;;;;;7.97;2.40;;;12.30;96.20;;;;;;5051897;28;20385;-73
2022/09/18 02:10:03;;;;;;;7.43;1.90;;;12.30;97.10;;;;;;5052808;28;20416;-74
2022/09/18 02:12:33;;;;;;;7.78;1.95;;;12.30;97.50;;;;;;5052762;28;20854;-74
2022/09/18 02:15:04;;;;;;;7.78;2.40;;;12.30;97.60;;;;;;5052912;28;20866;-74
2022/09/18 02:17:37;;;;;;;9.52;2.35;;;12.30;99.10;;;;;;5053001;28;20385;-75
2022/09/18 02:20:14;;;;;;;9.77;2.70;;;12.20;99.90;;;;;;5052581;28;20435;-74
2022/09/18 02:22:43;;;;;;;7.95;2.25;;;12.30;99.90;;;;;;5052785;28;20432;-74
2022/09/18 02:25:12;;;;;;;7.95;2.30;;;12.20;99.90;;;;;;5052854;28;20385;-74
2022/09/18 02:27:40;;;;;;;9.98;2.65;;;12.30;99.90;;;;;;5052811;28;20377;-76
2022/09/18 02:30:07;;;;;;;7.78;2.20;;;12.30;99.90;;;;;;5052701;28;20733;-74
2022/09/18 02:32:36;;;;;;;7.50;2.50;;;12.20;99.90;;;;;;5052470;28;20389;-74
2022/09/18 02:35:02;;;;;;;9.70;2.88;;;12.20;99.90;;;;;;5052618;28;20401;-74
2022/09/18 02:37:53;;;;;;;7.40;2.80;;;12.20;99.90;;;;;;5052599;28;20386;-74
2022/09/18 02:40:49;;;;;;;11.98;3.05;;;12.20;99.90;;;;;;5051277;28;20385;-74
2022/09/18 02:43:35;;;;;;;8.50;2.95;;;12.10;99.90;;;;;;5051989;28;20397;-74
2022/09/18 02:46:26;;;;;;;10.93;2.80;;;12.10;99.90;;;;;;5052262;28;20378;-74
2022/09/18 02:49:09;;;;;;;11.63;2.90;;;12.10;99.90;;;;;;5050944;28;20474;-74
2022/09/18 02:52:13;;;;;;;10.48;3.47;;;12.10;99.90;;;;;;5051999;28;20389;-74
2022/09/18 02:54:52;;;;;;;11.67;3.70;;;12.10;99.90;;;;;;5029865;28;20403;-74
2022/09/18 02:57:28;;;;;;;7.53;2.92;;;12.10;99.90;;;;;;5049408;28;20389;-73
2022/09/18 02:59:58;;;;;;;11.35;3.88;;;12.10;99.90;;;;;;5051576;28;20392;-74
2022/09/18 03:02:24;;;;;;;6.63;3.00;;;12.10;99.90;;;;;;5051462;28;20466;-74
2022/09/18 03:04:51;;;;;;;10.40;3.40;;;12.10;99.90;;;;;;5051613;28;20775;-74
2022/09/18 03:07:17;;;;;;;9.30;3.97;;;12.10;99.90;;;;;;5051677;28;20936;-74
2022/09/18 03:09:43;;;;;;;9.80;3.60;;;12.10;99.90;;;;;;5051789;28;20389;-74
2022/09/18 03:12:09;;;;;;;10.00;3.90;;;12.20;99.90;;;;;;5051428;28;20392;-74
2022/09/18 03:14:35;;;;;;;6.70;3.65;;;12.20;99.90;;;;;;5051574;28;20424;-73
2022/09/18 03:17:01;;;;;;;7.07;3.10;;;12.20;99.90;;;;;;5051603;28;20855;-72
2022/09/18 03:19:26;;;;;;;8.15;3.30;;;12.20;99.90;;;;;;5051485;28;20397;-73
2022/09/18 03:21:52;;;;;;;10.95;3.78;;;12.20;99.90;;;;;;5051196;28;20386;-74
2022/09/18 03:24:20;;;;;;;12.25;3.60;;;12.10;99.90;;;;;;5051223;28;20410;-74
2022/09/18 03:26:46;;;;;;;9.60;3.90;;;12.10;99.90;;;;;;5051414;28;20386;-74
2022/09/18 03:29:13;;;;;;;9.77;4.20;;;12.10;99.90;;;;;;5051243;28;20387;-74
2022/09/18 03:31:39;;;;;;;10.10;4.13;;;12.10;99.90;;;;;;5051206;28;20553;-74
2022/09/18 03:34:05;;;;;;;8.63;3.58;;;12.10;99.90;;;;;;5052114;28;20382;-74
2022/09/18 03:36:30;;;;;;;10.87;3.40;;;12.10;99.90;;;;;;5052490;28;20797;-75
2022/09/18 03:38:56;;;;;;;10.40;3.80;;;12.20;99.90;;;;;;5052842;28;20385;-74
2022/09/18 03:41:23;;;;;;;8.07;3.75;;;12.20;99.90;;;;;;5051428;28;20758;-74
2022/09/18 03:43:48;;;;;;;6.47;3.88;;;12.10;99.90;;;;;;5051598;28;20397;-74
2022/09/18 03:46:21;;;;;;;7.60;3.83;;;12.10;99.90;;;;;;5051310;28;20382;-74
2022/09/18 03:48:47;;;;;;;5.18;3.10;;;12.10;99.90;;;;;;5052407;28;20384;-74
2022/09/18 03:51:12;;;;;;;9.90;3.17;;;12.10;99.90;;;;;;5049497;28;20390;-74
2022/09/18 03:53:38;;;;;;;11.93;3.30;;;12.10;99.90;;;;;;5050989;28;20500;-74
2022/09/18 03:56:04;;;;;;;13.13;3.80;;;12.10;99.90;;;;;;5051218;28;20385;-74
2022/09/18 03:58:30;;;;;;;8.15;3.80;;;12.10;99.90;;;;;;5049610;28;20385;-72
2022/09/18 04:00:55;;;;;;;7.75;2.88;;;12.10;99.90;;;;;;5064611;23;20444;-73
2022/09/18 04:03:21;;;;;;;9.55;3.15;;;12.10;99.90;;;;;;5050882;28;20413;-72
2022/09/18 04:05:49;;;;;;;7.25;3.50;;;12.10;99.90;;;;;;5051042;28;20385;-72
2022/09/18 04:08:16;;;;;;;6.00;2.72;;;12.00;99.90;;;;;;5053864;28;20419;-73
2022/09/18 04:10:41;;;;;;;6.75;2.97;;;12.10;99.90;;;;;;5053491;28;20377;-73
2022/09/18 04:13:07;;;;;;;5.30;2.50;;;12.10;99.90;;;;;;5051870;28;20459;-73
2022/09/18 04:15:33;;;;;;;7.47;2.60;;;12.10;99.90;;;;;;5051057;28;20386;-71
2022/09/18 04:17:58;;;;;;;8.93;2.70;;;12.00;99.90;;;;;;5050836;28;20385;-72
2022/09/18 04:20:24;;;;;;;11.97;2.67;;;12.00;99.90;;;;;;5050614;28;20446;-73
2022/09/18 04:22:49;;;;;;;6.55;2.70;;;12.00;99.90;;;;;;5050651;28;20551;-72
2022/09/18 04:25:16;;;;;;;10.57;2.90;;;12.00;99.90;;;;;;5050632;28;20984;-72
2022/09/18 04:27:41;;;;;;;7.07;2.80;;;12.00;99.90;;;;;;5050488;28;20390;-72
2022/09/18 04:30:09;;;;;;;8.10;2.90;;;12.00;99.90;;;;;;5050603;28;20758;-72
2022/09/18 04:32:34;;;;;;;7.45;3.00;;;12.00;99.90;;;;;;5050306;28;20774;-72
2022/09/18 04:35:00;;;;;;;11.37;3.20;;;11.90;99.90;;;;;;5050297;28;20393;-72
2022/09/18 04:37:25;;;;;;;6.73;2.93;;;12.00;99.90;;;;;;5050433;28;20389;-72
2022/09/18 04:39:51;;;;;;;7.82;2.42;;;11.90;99.90;;;;;;5050461;28;20392;-72
2022/09/18 04:42:16;;;;;;;8.55;3.10;;;12.00;99.90;;;;;;5051601;28;20826;-73
2022/09/18 04:44:42;;;;;;;6.05;3.47;;;12.10;99.90;;;;;;5054595;28;20381;-73
2022/09/18 04:47:07;;;;;;;7.88;3.38;;;12.00;99.90;;;;;;5054736;28;20869;-73
2022/09/18 04:49:33;;;;;;;7.23;3.07;;;12.00;99.90;;;;;;5054426;28;20377;-74
2022/09/18 04:51:58;;;;;;;7.70;3.53;;;12.00;99.90;;;;;;5054181;28;20393;-73
2022/09/18 04:54:24;;;;;;;8.80;3.90;;;12.10;99.90;;;;;;5054454;28;20389;-74
2022/09/18 04:56:49;;;;;;;8.10;4.07;;;12.10;99.90;;;;;;5054332;28;20878;-73
2022/09/18 04:59:15;;;;;;;11.60;4.38;;;12.10;99.90;;;;;;5054443;28;20416;-73
2022/09/18 05:01:40;;;;;;;6.70;4.90;;;12.10;99.90;;;;;;5053737;28;20493;-72
2022/09/18 05:04:07;;;;;;;9.73;5.30;;;12.20;99.90;;;;;;5053989;28;20397;-72
2022/09/18 05:06:33;;;;;;;10.73;5.50;;;12.20;99.90;;;;;;5054182;28;20881;-72
2022/09/18 05:08:58;;;;;;;14.77;5.80;;;12.20;99.90;;;;;;5054115;28;20383;-72
2022/09/18 05:11:24;;;;;;;16.77;5.57;;;12.20;99.90;;;;;;5053785;28;20393;-72
2022/09/18 05:13:51;;;;;;;8.77;5.53;;;12.20;99.90;;;;;;5054112;28;20443;-72
2022/09/18 05:16:17;;;;;;;9.52;5.70;;;12.20;99.90;;;;;;5036059;28;20397;-72
2022/09/18 05:18:43;;;;;;;12.60;6.60;;;12.30;99.90;;;;;;5053803;28;20386;-72
2022/09/18 05:21:08;;;;;;;11.33;6.77;;;12.30;99.90;;;;;;5053662;28;20381;-72
2022/09/18 05:23:34;;;;;;;17.50;6.50;;;12.30;99.90;;;;;;5053699;28;20409;-73
2022/09/18 05:26:00;;;;;;;10.27;6.10;;;12.40;99.90;;;;;;5035901;28;20439;-73
2022/09/18 05:28:26;;;;;;;10.63;5.70;;;12.30;99.90;;;;;;5035903;28;20417;-72
2022/09/18 05:30:52;;;;;;;12.10;5.90;;;12.30;99.90;;;;;;5053173;28;20389;-72
2022/09/18 05:33:17;;;;;;;11.00;6.10;;;12.40;99.90;;;;;;5054023;28;20434;-71
2022/09/18 05:35:43;;;;;;;12.77;6.32;;;12.40;99.90;;;;;;5053867;28;20389;-72
2022/09/18 05:38:10;;;;;;;16.35;6.63;;;12.40;99.90;;;;;;5054302;28;20385;-72
2022/09/18 05:40:36;;;;;;;12.85;6.88;;;12.40;99.90;;;;;;5053449;28;20385;-71
2022/09/18 05:43:03;;;;;;;12.60;6.22;;;12.40;99.90;;;;;;5053425;28;20410;-75
2022/09/18 05:45:28;;;;;;;12.52;5.80;;;12.40;99.90;;;;;;5053743;28;20382;-72
2022/09/18 05:47:59;;;;;;;17.53;6.00;;;12.40;99.90;;;;;;5053735;28;20884;-72
2022/09/18 05:50:27;;;;;;;8.23;5.25;;;12.40;99.90;;;;;;5053760;28;20874;-72
2022/09/18 05:53:03;;;;;;;13.93;5.35;;;12.50;99.90;;;;;;5053457;28;20810;-74
2022/09/18 05:55:30;;;;;;;13.18;5.55;;;12.40;99.90;;;;;;5052649;28;20393;-71
2022/09/18 05:57:56;;;;;;;11.80;5.45;;;12.30;99.90;;;;;;5053607;28;20396;-72
2022/09/18 06:00:24;;;;;;;16.27;5.53;;;12.30;99.90;;;;;;5035670;28;20469;-72
2022/09/18 06:03:12;;;;;;;10.43;5.50;;;12.30;99.90;;;;;;5053389;28;20406;-72
2022/09/18 06:05:39;;;;;;;9.25;5.20;;;12.20;99.90;;;;;;5053330;28;20400;-73
2022/09/18 06:08:07;;;;;;;10.05;5.05;;;12.20;99.90;;;;;;5053134;28;20435;-73
2022/09/18 06:10:36;;;;;;;9.55;4.53;;;12.20;99.90;;;;;;5052882;28;20374;-72
2022/09/18 06:13:07;;;;;;;11.50;4.43;;;12.30;99.90;;;;;;5053113;28;20886;-72
2022/09/18 06:15:34;;;;;;;11.40;5.13;;;12.30;99.90;;;;;;5052817;28;20385;-72
2022/09/18 06:17:59;;;;;;;12.30;4.78;;;12.30;99.90;;;;;;5052765;28;20771;-72
2022/09/18 06:20:25;;;;;;;7.65;3.70;;;12.40;99.90;;;;;;5052755;28;20420;-73
2022/09/18 06:22:51;;;;;;;7.85;4.00;;;12.40;99.90;;;;;;5053772;28;20897;-73
2022/09/18 06:25:18;;;;;;;8.15;3.90;;;12.50;99.90;;;;;;5054425;28;20403;-74
2022/09/18 06:27:43;;;;;;;6.63;3.30;;;12.60;99.90;;;;;;5054839;28;20386;-74
2022/09/18 06:30:12;;;;;;;6.13;3.30;;;12.60;99.90;;;;;;5035437;28;20394;-72
2022/09/18 06:32:38;;;;;;;10.23;3.00;;;12.60;99.90;;;;;;5052458;28;20796;-72
2022/09/18 06:35:04;;;;;;;7.07;2.95;;;12.70;99.90;;;;;;5052757;28;20374;-73
2022/09/18 06:37:29;;;;;;;6.40;2.78;;;12.60;99.90;;;;;;5052412;28;20413;-72
2022/09/18 06:39:55;;;;;;;5.77;2.57;;;12.70;99.90;;;;;;5052342;28;20421;-72
2022/09/18 06:42:20;;;;;;;7.43;2.70;;;12.70;99.90;;;;;;5034447;28;20444;-72
2022/09/18 06:44:46;;;;;;;8.38;2.50;;;12.70;99.90;;;;;;5052419;28;20393;-72
2022/09/18 06:47:11;;;;;;;8.90;2.92;;;12.80;99.90;;;;;;5052501;28;20756;-72
2022/09/18 06:49:37;;;;;;;7.40;2.80;;;12.80;99.90;;;;;;5052555;28;20420;-72
2022/09/18 06:52:03;;;;;;;8.63;2.50;;;12.70;99.90;;;;;;5052087;28;20846;-72
2022/09/18 06:54:28;;;;;;;9.83;2.80;;;12.80;99.90;;;;;;5034499;28;20392;-72
2022/09/18 06:56:54;;;;;;;7.90;3.20;;;12.80;99.90;;;;;;5052558;28;20404;-73
2022/09/18 06:59:21;;;;;;;9.95;3.35;;;12.70;99.90;;;;;;5052467;28;20386;-72
2022/09/18 07:01:50;;;;;;;6.63;2.70;;;12.70;99.90;;;;;;5052194;28;20469;-72
2022/09/18 07:04:15;;;;;;;11.65;2.92;;;12.60;99.90;;;;;;5052813;28;20455;-72
2022/09/18 07:06:44;;;;;;;6.63;3.50;;;12.60;99.90;;;;;;5050916;28;20374;-72
2022/09/18 07:09:10;;;;;;;11.75;4.10;;;12.50;99.90;;;;;;5051961;28;20381;-72
2022/09/18 07:11:36;;;;;;;7.88;3.75;;;12.40;99.90;;;;;;5055641;28;20470;-72
2022/09/18 07:14:05;;;;;;;24.57;4.90;;;12.20;99.90;;;;;;5053485;28;20492;-72
2022/09/18 07:16:31;;;;;;;6.65;3.42;;;12.00;99.90;;;;;;5051827;28;20440;-71
2022/09/18 07:18:56;;;;;;;5.93;2.00;;;11.60;99.90;;;;;;5051627;28;20389;-73
2022/09/18 07:21:22;;;;;;;5.30;2.60;;;11.20;99.90;;;;;;5051209;28;20387;-71
2022/09/18 07:23:48;;;;;;;5.28;3.10;;;11.20;99.90;;;;;;5051868;28;20405;-71
2022/09/18 07:26:13;;;;;;;6.63;3.07;;;11.20;99.90;;;;;;5034019;28;20439;-72
2022/09/18 07:28:39;;;;;;;8.05;2.35;;;11.20;99.90;;;;;;5051301;28;20377;-72
2022/09/18 07:31:05;;;;;;;9.27;2.97;;;11.30;99.90;;;;;;5051254;28;20475;-73
2022/09/18 07:33:31;;;;;;;4.85;2.10;;;11.30;99.90;;;;;;5051527;28;20385;-72
2022/09/18 07:36:00;;;;;;;5.13;2.20;;;11.20;99.90;;;;;;5051179;28;20854;-72
2022/09/18 07:38:27;;;;;;;3.55;2.20;;;11.30;99.90;;;;;;5051393;28;20393;-72
2022/09/18 07:40:52;;;;;;;6.18;2.90;;;11.30;99.90;;;;;;5051178;28;20378;-71
2022/09/18 07:43:18;;;;;;;8.00;3.10;;;11.40;99.90;;;;;;5051141;28;20907;-72
2022/09/18 07:45:44;;;;;;;8.45;3.60;;;11.60;99.90;;;;;;5051155;28;20377;-71
2022/09/18 07:48:09;;;;;;;14.18;4.60;;;11.80;99.90;;;;;;5051148;28;20425;-72
2022/09/18 07:50:35;;;;;;;10.00;4.00;;;12.00;99.90;;;;;;5033205;28;20432;-73
2022/09/18 07:53:04;;;;;;;10.00;4.10;;;12.10;99.90;;;;;;5051186;28;20385;-71
2022/09/18 07:55:30;;;;;;;8.95;3.80;;;12.30;99.90;;;;;;5051141;28;20377;-71
2022/09/18 07:57:57;;;;;;;10.55;3.90;;;12.40;99.90;;;;;;5050774;28;20382;-72
2022/09/18 08:00:24;;;;;;;10.30;3.72;;;12.40;99.90;;;;;;5051490;28;20455;-71
2022/09/18 08:02:51;;;;;;;7.63;3.58;;;12.30;99.90;;;;;;5050831;28;20421;-70
2022/09/18 08:05:16;;;;;;;12.32;3.85;;;12.40;99.90;;;;;;5050830;28;20385;-71
2022/09/18 08:07:43;;;;;;;9.70;3.60;;;12.40;99.90;;;;;;5050722;28;20404;-71
2022/09/18 08:10:10;;;;;;;11.03;3.40;;;12.60;99.90;;;;;;5050844;28;20452;-72
2022/09/18 08:12:36;;;;;;;9.75;3.40;;;12.80;99.90;;;;;;5050931;28;20398;-72
2022/09/18 08:15:02;;;;;;;10.37;3.27;;;12.90;99.90;;;;;;5050933;28;20389;-72
2022/09/18 08:17:27;;;;;;;8.32;2.90;;;13.00;99.90;;;;;;5050632;28;20870;-71
2022/09/18 08:19:53;;;;;;;14.20;3.60;;;13.20;99.90;;;;;;5050970;28;20394;-72
2022/09/18 08:22:18;;;;;;;9.13;3.10;;;13.20;99.90;;;;;;5050741;28;20390;-72
2022/09/18 08:24:44;;;;;;;9.18;3.00;;;13.10;99.90;;;;;;5050914;28;20734;-72
2022/09/18 08:27:09;;;;;;;9.53;3.27;;;13.00;99.90;;;;;;5050823;28;20816;-71
2022/09/18 08:29:35;;;;;;;7.93;2.80;;;12.90;99.90;;;;;;5050744;28;20487;-71
2022/09/18 08:32:01;;;;;;;7.33;3.20;;;12.90;99.90;;;;;;5051002;28;20428;-73
2022/09/18 08:34:26;;;;;;;7.93;2.73;;;12.90;99.90;;;;;;5051240;28;20385;-72
2022/09/18 08:36:54;;;;;;;8.67;3.30;;;12.90;99.90;;;;;;5050508;28;20386;-73
2022/09/18 08:39:19;;;;;;;9.55;3.05;;;13.00;99.90;;;;;;5050805;28;20416;-72
2022/09/18 08:42:19;;;;;;;8.40;3.00;;;13.00;99.90;;;;;;5050411;28;20386;-73
2022/09/18 08:44:52;;;;;;;6.78;2.70;;;13.10;99.90;;;;;;5050784;28;20447;-72
2022/09/18 08:47:32;;;;;;;5.65;2.60;;;13.10;99.90;;;;;;5051110;28;20420;-73
2022/09/18 08:50:04;;;;;;;8.63;2.70;;;13.10;99.90;;;;;;5050452;28;20404;-72
2022/09/18 08:52:33;;;;;;;7.17;3.50;;;13.10;99.90;;;;;;5050748;28;20393;-72
2022/09/18 08:55:13;;;;;;;8.98;2.80;;;13.30;99.90;;;;;;5050690;28;20435;-72
2022/09/18 08:57:45;;;;;;;8.15;2.70;;;13.40;99.90;;;;;;5050500;28;20402;-71
2022/09/18 09:00:22;;;;;;;6.18;2.70;;;13.60;99.90;;;;;;5050135;28;20374;-73
2022/09/18 09:02:54;;;;;;;8.32;2.75;;;13.70;99.90;;;;;;5050183;28;20411;-73
2022/09/18 09:05:34;;;;;;;3.83;2.70;;;13.80;99.90;;;;;;5050280;28;20385;-72
2022/09/18 09:08:21;;;;;;;6.70;2.35;;;14.00;95.10;;;;;;5050190;28;20460;-72
2022/09/18 09:11:09;;;;;;;8.63;2.50;;;14.20;93.60;;;;;;5032312;28;20513;-72
2022/09/18 09:14:06;;;;;;;11.20;2.65;;;14.10;92.80;;;;;;5051565;28;20389;-73
2022/09/18 09:16:42;;;;;;;6.28;3.20;;;14.20;90.80;;;;;;5054055;28;20390;-73
2022/09/18 09:19:24;;;;;;;16.15;3.72;;;14.30;92.50;;;;;;5052673;28;20381;-73
2022/09/18 09:22:29;;;;;;;5.72;3.40;;;14.50;86.70;;;;;;5052726;28;20866;-74
2022/09/18 09:25:09;;;;;;;9.30;4.20;;;14.60;85.30;;;;;;5052918;28;20965;-74
2022/09/18 09:27:43;;;;;;;9.02;4.75;;;14.90;82.40;;;;;;5051656;28;20377;-73
2022/09/18 09:30:19;;;;;;;6.55;4.70;;;15.00;87.10;;;;;;5052745;28;20382;-73
2022/09/18 09:32:56;;;;;;;10.30;4.68;;;15.20;79.20;;;;;;5035284;28;20889;-72
2022/09/18 09:35:25;;;;;;;8.43;5.10;;;15.00;80.10;;;;;;5053597;28;20370;-72
2022/09/18 09:37:52;;;;;;;8.93;5.60;;;15.10;82.00;;;;;;5053670;28;20435;-72
2022/09/18 09:40:31;;;;;;;7.68;5.75;;;15.10;81.40;;;;;;5053552;28;20413;-73
2022/09/18 09:43:16;;;;;;;10.23;5.90;;;15.20;81.30;;;;;;5053358;28;20405;-73
2022/09/18 09:45:45;;;;;;;7.28;5.50;;;15.50;76.40;;;;;;5053339;28;20423;-71
2022/09/18 09:48:39;;;;;;;7.30;5.20;;;15.20;75.10;;;;;;5053740;28;20385;-72
2022/09/18 09:51:15;;;;;;;11.02;5.43;;;15.20;74.50;;;;;;5035225;28;20754;-73
2022/09/18 09:53:41;;;;;;;7.03;4.25;;;15.10;78.40;;;;;;5053466;28;20393;-72
2022/09/18 09:56:31;;;;;;;8.35;4.40;;;15.20;77.20;;;;;;5053401;28;20743;-74
2022/09/18 09:59:23;;;;;;;5.75;3.40;;;15.60;75.40;;;;;;5053431;28;20397;-73
2022/09/18 10:02:17;;;;;;;6.82;3.03;;;15.70;69.40;;;;;;5053856;28;20397;-74
2022/09/18 10:04:58;;;;;;;4.03;2.67;;;15.80;66.50;;;;;;5052917;28;20423;-72
2022/09/18 10:07:33;;;;;;;7.50;2.70;;;15.80;65.00;;;;;;5053031;28;20412;-73
2022/09/18 10:10:12;;;;;;;5.40;2.17;;;15.80;66.50;;;;;;5052864;28;20435;-73
2022/09/18 10:12:54;;;;;;;5.35;2.60;;;15.80;64.20;;;;;;5052716;28;20381;-73
2022/09/18 10:15:36;;;;;;;3.60;2.20;;;15.80;62.30;;;;;;5052878;28;20376;-75
2022/09/18 10:18:05;;;;;;;6.20;2.17;;;15.70;63.30;;;;;;5053046;28;20378;-74
2022/09/18 10:20:32;;;;;;;3.92;1.98;;;15.80;62.40;;;;;;5052845;28;20983;-73
2022/09/18 10:23:04;;;;;;;5.63;2.53;;;15.80;64.60;;;;;;5052430;28;20417;-74
2022/09/18 10:25:41;;;;;;;5.70;2.70;;;16.00;61.70;;;;;;5052895;28;20393;-73
2022/09/18 10:28:12;;;;;;;4.13;2.40;;;16.20;59.40;;;;;;5052630;28;20388;-73
2022/09/18 10:31:00;;;;;;;5.00;2.60;;;16.40;57.60;;;;;;5052748;28;20385;-74
2022/09/18 10:33:37;;;;;;;6.25;2.45;;;16.50;57.00;;;;;;5034714;28;20400;-73
2022/09/18 10:36:27;;;;;;;7.38;2.47;;;16.60;53.60;;;;;;5052575;28;20389;-74
2022/09/18 10:38:53;;;;;;;7.70;3.20;;;16.70;53.90;;;;;;5020353;28;20456;-73
2022/09/18 10:41:27;;;;;;;4.90;2.90;;;16.40;55.90;;;;;;5034675;28;20808;-77
2022/09/18 10:43:57;;;;;;;11.30;3.20;;;16.10;56.60;;;;;;5052370;28;20444;-73
2022/09/18 10:46:25;;;;;;;6.75;2.90;;;15.70;61.00;;;;;;5052821;28;20439;-74
2022/09/18 10:48:51;;;;;;;6.20;2.90;;;15.40;65.10;;;;;;5052947;28;20409;-73
2022/09/18 10:51:20;;;;;;;5.00;2.83;;;15.10;68.90;;;;;;5052398;28;20377;-73
2022/09/18 10:54:00;;;;;;;7.10;3.03;;;14.90;73.50;;;;;;5052215;28;20392;-72
2022/09/18 10:56:25;;;;;;;7.30;3.30;;;14.60;79.50;;;;;;5052442;28;20382;-72
2022/09/18 10:58:51;;;;;;;3.65;2.70;;;14.40;83.20;;;;;;5052282;28;20455;-73
2022/09/18 11:01:17;;;;;;;6.90;2.80;;;14.30;84.40;;;;;;5053186;28;20412;-74
2022/09/18 11:03:48;;;;;;;3.33;2.93;;;14.40;82.70;;;;;;5052770;28;20448;-74
2022/09/18 11:06:23;;;;;;;6.33;2.90;;;14.70;75.50;;;;;;5054543;28;20493;-74
2022/09/18 11:08:51;;;;;;;5.97;2.63;;;14.90;73.00;;;;;;5053851;28;20385;-75
2022/09/18 11:11:34;;;;;;;5.50;2.50;;;15.10;69.20;;;;;;5053048;28;20373;-74
2022/09/18 11:14:04;;;;;;;6.72;3.33;;;15.20;67.40;;;;;;5053086;28;20421;-74
2022/09/18 11:16:36;;;;;;;5.43;2.65;;;15.30;69.20;;;;;;5057542;28;20797;-73
2022/09/18 11:19:04;;;;;;;8.25;3.00;;;15.50;67.20;;;;;;5037217;28;20397;-74
2022/09/18 11:21:30;;;;;;;5.37;2.40;;;15.60;63.80;;;;;;5054449;28;20468;-74
2022/09/18 11:24:04;;;;;;;4.30;2.33;;;15.70;62.20;;;;;;5053453;28;20762;-74
2022/09/18 11:26:31;;;;;;;4.83;2.30;;;15.80;58.30;;;;;;5051973;28;20388;-74
2022/09/18 11:28:58;;;;;;;3.13;2.27;;;15.70;61.80;;;;;;5051724;28;20458;-74
2022/09/18 11:31:26;;;;;;;5.57;2.50;;;15.60;59.10;;;;;;5051181;28;20389;-72
2022/09/18 11:33:57;;;;;;;4.67;2.53;;;15.30;61.50;;;;;;5051462;28;20470;-73
2022/09/18 11:36:29;;;;;;;6.72;2.35;;;15.00;64.40;;;;;;5051787;28;20386;-74
2022/09/18 11:38:58;;;;;;;3.97;2.38;;;14.80;67.60;;;;;;5051707;28;20882;-74
2022/09/18 11:41:35;;;;;;;7.43;2.50;;;14.70;70.90;;;;;;5033935;28;20470;-72
2022/09/18 11:44:15;;;;;;;5.77;2.90;;;14.50;70.40;;;;;;5051571;28;20493;-73
2022/09/18 11:46:52;;;;;;;3.42;2.00;;;14.30;75.20;;;;;;5051829;28;20378;-73
2022/09/18 11:49:27;;;;;;;5.85;2.60;;;14.20;80.20;;;;;;5051939;28;20388;-74
2022/09/18 11:52:03;;;;;;;4.22;2.85;;;14.10;88.60;;;;;;5051007;28;20377;-73
2022/09/18 11:54:53;;;;;;;2.70;1.00;;;13.30;99.90;;;;;;5051414;28;20385;-72
2022/09/18 11:57:27;;;;;;;1.80;0.60;;;13.90;1.40;;;;;;5052119;28;20869;-72
2022/09/18 12:00:02;;;;;;;3.45;0.60;;;14.20;1.40;;;;;;5050901;28;20388;-71
2022/09/18 12:02:43;;;;;;;3.10;0.70;;;13.50;1.40;;;;;;5050655;28;20878;-72
2022/09/18 12:05:14;;;;;;;1.45;0.60;;;13.70;1.40;;;;;;5051116;28;20389;-73
2022/09/18 12:07:59;;;;;;;0.80;0.60;;;13.50;1.40;;;;;;5051246;28;20858;-72
2022/09/18 12:10:48;;;;;;;0.90;0.60;;;13.70;1.40;;;;;;5051065;28;20389;-73
2022/09/18 12:13:35;;;;;;;0.80;0.50;;;13.80;1.40;;;;;;5050923;28;20742;-73
2022/09/18 12:16:14;;;;;;;1.17;1.08;;;13.60;1.40;;;;;;5050771;28;20435;-73
2022/09/18 12:18:48;;;;;;;0.95;0.70;;;13.90;1.40;;;;;;5050627;28;20377;-73
2022/09/18 12:21:18;;;;;;;0.80;0.50;;;14.00;1.40;;;;;;5032661;28;20389;-71
2022/09/18 12:23:43;;;;;;;1.20;0.60;;;13.90;1.40;;;;;;5050999;28;20793;-72
2022/09/18 12:26:26;;;;;;;3.40;1.00;;;13.90;1.40;;;;;;5051747;28;20395;-73
2022/09/18 12:29:21;;;;;;;0.80;0.50;;;13.90;1.40;;;;;;5051831;28;20812;-73
2022/09/18 12:32:18;;;;;;;1.40;1.10;;;14.00;1.40;;;;;;5050922;28;20377;-73
2022/09/18 12:34:58;;;;;;;0.80;0.50;;;14.10;1.40;;;;;;5050752;28;20742;-74
2022/09/18 12:37:55;;;;;;;0.90;0.60;;;14.10;1.40;;;;;;5050739;28;20459;-72
2022/09/18 12:40:39;;;;;;;1.00;0.60;;;14.10;1.40;;;;;;5050532;28;20413;-73
2022/09/18 12:43:39;;;;;;;0.80;0.50;;;14.00;1.40;;;;;;5050177;28;20397;-73
2022/09/18 12:46:10;;;;;;;0.80;0.60;;;13.90;1.40;;;;;;5050477;28;20433;-72
2022/09/18 12:49:01;;;;;;;0.80;0.50;;;14.00;1.40;;;;;;5050646;28;20374;-74
2022/09/18 12:51:52;;;;;;;0.80;0.50;;;13.90;1.40;;;;;;5050078;28;20385;-72
2022/09/18 12:54:57;;;;;;;0.90;0.80;;;13.90;1.40;;;;;;5050359;28;20385;-72
2022/09/18 12:57:31;;;;;;;2.70;0.80;;;13.80;1.40;;;;;;5050546;28;20408;-72
2022/09/18 13:00:10;;;;;;;0.80;0.50;;;13.70;1.40;;;;;;5050426;28;20378;-71
2022/09/18 13:02:42;;;;;;;0.80;0.50;;;13.60;1.40;;;;;;5049471;28;20389;-72
2022/09/18 13:05:34;;;;;;;0.80;0.50;;;13.70;1.40;;;;;;5053101;28;20381;-72
2022/09/18 13:08:19;;;;;;;1.10;0.63;;;13.70;1.40;;;;;;5054410;28;20373;-72
2022/09/18 13:10:46;;;;;;;0.90;0.70;;;13.60;1.40;;;;;;5054330;28;20389;-72